sensor_id;sensor_type;location;lat;lon;timestamp;P1;durP1;ratioP1;P2;durP2;ratioP2
19384;SDS011;9828;54.122;17.974;2022-08-16T00:05:14;8.75;;;7.63;;
19384;SDS011;9828;54.122;17.974;2022-08-16T00:10:35;11.70;;;8.18;;
19384;SDS011;9828;54.122;17.974;2022-08-16T00:15:57;8.63;;;7.78;;
19384;SDS011;9828;54.122;17.974;2022-08-16T00:21:19;13.10;;;7.57;;
19384;SDS011;9828;54.122;17.974;2022-08-16T00:26:40;13.65;;;8.32;;
19384;SDS011;9828;54.122;17.974;2022-08-16T00:32:03;11.25;;;7.75;;
19384;SDS011;9828;54.122;17.974;2022-08-16T00:37:25;9.30;;;7.57;;
19384;SDS011;9828;54.122;17.974;2022-08-16T00:42:47;11.63;;;8.45;;
19384;SDS011;9828;54.122;17.974;2022-08-16T00:48:09;9.60;;;8.40;;
19384;SDS011;9828;54.122;17.974;2022-08-16T00:53:33;11.02;;;8.00;;
19384;SDS011;9828;54.122;17.974;2022-08-16T00:58:54;9.75;;;8.68;;
19384;SDS011;9828;54.122;17.974;2022-08-16T01:04:17;11.00;;;8.50;;
19384;SDS011;9828;54.122;17.974;2022-08-16T01:09:42;9.65;;;8.43;;
19384;SDS011;9828;54.122;17.974;2022-08-16T01:15:04;8.98;;;7.65;;
19384;SDS011;9828;54.122;17.974;2022-08-16T01:20:26;10.45;;;8.50;;
19384;SDS011;9828;54.122;17.974;2022-08-16T01:25:52;11.63;;;8.57;;
19384;SDS011;9828;54.122;17.974;2022-08-16T01:31:15;10.50;;;7.97;;
19384;SDS011;9828;54.122;17.974;2022-08-16T01:36:41;10.60;;;9.50;;
19384;SDS011;9828;54.122;17.974;2022-08-16T01:42:04;18.45;;;8.68;;
19384;SDS011;9828;54.122;17.974;2022-08-16T01:47:31;9.60;;;8.35;;
19384;SDS011;9828;54.122;17.974;2022-08-16T01:52:53;12.23;;;8.52;;
19384;SDS011;9828;54.122;17.974;2022-08-16T01:58:34;13.82;;;8.23;;
19384;SDS011;9828;54.122;17.974;2022-08-16T02:03:55;12.18;;;8.73;;
19384;SDS011;9828;54.122;17.974;2022-08-16T02:09:19;14.70;;;8.95;;
19384;SDS011;9828;54.122;17.974;2022-08-16T02:14:44;9.98;;;8.77;;
19384;SDS011;9828;54.122;17.974;2022-08-16T02:20:06;11.02;;;8.98;;
19384;SDS011;9828;54.122;17.974;2022-08-16T02:25:29;13.30;;;8.80;;
19384;SDS011;9828;54.122;17.974;2022-08-16T02:30:53;13.55;;;9.82;;
19384;SDS011;9828;54.122;17.974;2022-08-16T02:36:16;11.95;;;8.63;;
19384;SDS011;9828;54.122;17.974;2022-08-16T02:41:40;13.80;;;9.98;;
19384;SDS011;9828;54.122;17.974;2022-08-16T02:47:03;9.95;;;8.90;;
19384;SDS011;9828;54.122;17.974;2022-08-16T02:52:25;9.35;;;8.35;;
19384;SDS011;9828;54.122;17.974;2022-08-16T02:57:49;10.55;;;9.15;;
19384;SDS011;9828;54.122;17.974;2022-08-16T03:03:11;13.27;;;8.85;;
19384;SDS011;9828;54.122;17.974;2022-08-16T03:08:33;10.32;;;9.32;;
19384;SDS011;9828;54.122;17.974;2022-08-16T03:13:57;11.50;;;9.50;;
19384;SDS011;9828;54.122;17.974;2022-08-16T03:19:19;9.82;;;8.82;;
19384;SDS011;9828;54.122;17.974;2022-08-16T03:24:42;9.40;;;8.50;;
19384;SDS011;9828;54.122;17.974;2022-08-16T03:30:07;10.98;;;9.15;;
19384;SDS011;9828;54.122;17.974;2022-08-16T03:35:34;9.48;;;8.57;;
19384;SDS011;9828;54.122;17.974;2022-08-16T03:41:07;10.52;;;8.40;;
19384;SDS011;9828;54.122;17.974;2022-08-16T03:46:28;11.98;;;9.43;;
19384;SDS011;9828;54.122;17.974;2022-08-16T03:51:51;12.82;;;9.02;;
19384;SDS011;9828;54.122;17.974;2022-08-16T03:57:20;9.35;;;8.45;;
19384;SDS011;9828;54.122;17.974;2022-08-16T04:02:42;13.57;;;9.43;;
19384;SDS011;9828;54.122;17.974;2022-08-16T04:08:08;11.23;;;9.43;;
19384;SDS011;9828;54.122;17.974;2022-08-16T04:13:30;10.27;;;9.18;;
19384;SDS011;9828;54.122;17.974;2022-08-16T04:18:52;13.73;;;9.65;;
19384;SDS011;9828;54.122;17.974;2022-08-16T04:24:14;17.23;;;10.40;;
19384;SDS011;9828;54.122;17.974;2022-08-16T04:29:36;15.55;;;10.90;;
19384;SDS011;9828;54.122;17.974;2022-08-16T04:34:57;11.00;;;9.63;;
19384;SDS011;9828;54.122;17.974;2022-08-16T04:40:21;10.98;;;9.30;;
19384;SDS011;9828;54.122;17.974;2022-08-16T04:45:46;13.77;;;10.27;;
19384;SDS011;9828;54.122;17.974;2022-08-16T04:51:13;15.88;;;11.00;;
19384;SDS011;9828;54.122;17.974;2022-08-16T04:56:43;13.82;;;10.82;;
19384;SDS011;9828;54.122;17.974;2022-08-16T05:02:04;14.80;;;11.30;;
19384;SDS011;9828;54.122;17.974;2022-08-16T05:07:26;15.32;;;10.25;;
19384;SDS011;9828;54.122;17.974;2022-08-16T05:12:55;14.25;;;11.15;;
19384;SDS011;9828;54.122;17.974;2022-08-16T05:18:19;13.20;;;10.65;;
19384;SDS011;9828;54.122;17.974;2022-08-16T05:23:50;12.77;;;10.63;;
19384;SDS011;9828;54.122;17.974;2022-08-16T05:29:12;20.70;;;12.60;;
19384;SDS011;9828;54.122;17.974;2022-08-16T05:34:40;12.38;;;11.00;;
19384;SDS011;9828;54.122;17.974;2022-08-16T05:40:02;14.85;;;12.15;;
19384;SDS011;9828;54.122;17.974;2022-08-16T05:45:26;12.25;;;10.95;;
19384;SDS011;9828;54.122;17.974;2022-08-16T05:50:52;16.50;;;12.07;;
19384;SDS011;9828;54.122;17.974;2022-08-16T05:56:14;18.02;;;12.85;;
19384;SDS011;9828;54.122;17.974;2022-08-16T06:01:38;14.95;;;12.13;;
19384;SDS011;9828;54.122;17.974;2022-08-16T06:07:01;17.60;;;12.23;;
19384;SDS011;9828;54.122;17.974;2022-08-16T06:12:28;15.52;;;12.32;;
19384;SDS011;9828;54.122;17.974;2022-08-16T06:17:54;15.80;;;13.63;;
19384;SDS011;9828;54.122;17.974;2022-08-16T06:23:18;14.90;;;13.15;;
19384;SDS011;9828;54.122;17.974;2022-08-16T06:28:48;13.02;;;11.52;;
19384;SDS011;9828;54.122;17.974;2022-08-16T06:34:17;14.35;;;12.85;;
19384;SDS011;9828;54.122;17.974;2022-08-16T06:39:39;17.02;;;13.20;;
19384;SDS011;9828;54.122;17.974;2022-08-16T06:45:09;13.00;;;11.63;;
19384;SDS011;9828;54.122;17.974;2022-08-16T06:50:41;15.63;;;11.18;;
19384;SDS011;9828;54.122;17.974;2022-08-16T06:56:04;13.27;;;10.32;;
19384;SDS011;9828;54.122;17.974;2022-08-16T07:01:42;15.05;;;11.50;;
19384;SDS011;9828;54.122;17.974;2022-08-16T07:07:09;14.15;;;11.13;;
19384;SDS011;9828;54.122;17.974;2022-08-16T07:12:31;11.30;;;10.10;;
19384;SDS011;9828;54.122;17.974;2022-08-16T07:17:53;11.75;;;10.50;;
19384;SDS011;9828;54.122;17.974;2022-08-16T07:23:15;13.18;;;10.32;;
19384;SDS011;9828;54.122;17.974;2022-08-16T07:28:42;12.55;;;9.55;;
19384;SDS011;9828;54.122;17.974;2022-08-16T07:34:04;11.98;;;9.82;;
19384;SDS011;9828;54.122;17.974;2022-08-16T07:39:26;16.83;;;10.27;;
19384;SDS011;9828;54.122;17.974;2022-08-16T07:44:52;16.40;;;9.80;;
19384;SDS011;9828;54.122;17.974;2022-08-16T07:50:14;20.85;;;11.00;;
19384;SDS011;9828;54.122;17.974;2022-08-16T07:55:36;18.45;;;10.77;;
19384;SDS011;9828;54.122;17.974;2022-08-16T08:00:58;12.77;;;10.65;;
19384;SDS011;9828;54.122;17.974;2022-08-16T08:06:23;12.25;;;9.23;;
19384;SDS011;9828;54.122;17.974;2022-08-16T08:11:52;12.00;;;9.60;;
19384;SDS011;9828;54.122;17.974;2022-08-16T08:17:14;17.58;;;10.07;;
19384;SDS011;9828;54.122;17.974;2022-08-16T08:22:37;17.98;;;12.05;;
19384;SDS011;9828;54.122;17.974;2022-08-16T08:28:03;15.05;;;10.68;;
19384;SDS011;9828;54.122;17.974;2022-08-16T08:33:24;12.45;;;10.32;;
19384;SDS011;9828;54.122;17.974;2022-08-16T08:38:46;13.18;;;10.75;;
19384;SDS011;9828;54.122;17.974;2022-08-16T08:44:11;14.85;;;10.43;;
19384;SDS011;9828;54.122;17.974;2022-08-16T08:49:33;14.80;;;10.15;;
19384;SDS011;9828;54.122;17.974;2022-08-16T08:54:57;11.57;;;10.38;;
19384;SDS011;9828;54.122;17.974;2022-08-16T09:00:21;13.30;;;10.05;;
19384;SDS011;9828;54.122;17.974;2022-08-16T09:05:47;17.33;;;11.68;;
19384;SDS011;9828;54.122;17.974;2022-08-16T09:11:12;11.02;;;9.93;;
19384;SDS011;9828;54.122;17.974;2022-08-16T09:16:34;17.25;;;11.38;;
19384;SDS011;9828;54.122;17.974;2022-08-16T09:21:56;13.07;;;11.38;;
19384;SDS011;9828;54.122;17.974;2022-08-16T09:27:18;10.27;;;9.10;;
19384;SDS011;9828;54.122;17.974;2022-08-16T09:32:40;14.35;;;11.50;;
19384;SDS011;9828;54.122;17.974;2022-08-16T09:38:02;15.40;;;11.20;;
19384;SDS011;9828;54.122;17.974;2022-08-16T09:43:24;22.08;;;12.30;;
19384;SDS011;9828;54.122;17.974;2022-08-16T09:49:05;14.70;;;10.70;;
19384;SDS011;9828;54.122;17.974;2022-08-16T09:54:27;14.15;;;10.48;;
19384;SDS011;9828;54.122;17.974;2022-08-16T09:59:48;12.93;;;11.13;;
19384;SDS011;9828;54.122;17.974;2022-08-16T10:05:10;14.40;;;11.43;;
19384;SDS011;9828;54.122;17.974;2022-08-16T10:10:32;14.30;;;11.07;;
19384;SDS011;9828;54.122;17.974;2022-08-16T10:15:54;12.10;;;10.90;;
19384;SDS011;9828;54.122;17.974;2022-08-16T10:21:19;12.82;;;10.55;;
19384;SDS011;9828;54.122;17.974;2022-08-16T10:26:41;13.98;;;10.73;;
19384;SDS011;9828;54.122;17.974;2022-08-16T10:32:03;14.55;;;10.88;;
19384;SDS011;9828;54.122;17.974;2022-08-16T10:37:25;27.85;;;11.32;;
19384;SDS011;9828;54.122;17.974;2022-08-16T10:42:47;12.75;;;9.82;;
19384;SDS011;9828;54.122;17.974;2022-08-16T10:48:09;13.98;;;11.02;;
19384;SDS011;9828;54.122;17.974;2022-08-16T10:53:32;15.30;;;12.35;;
19384;SDS011;9828;54.122;17.974;2022-08-16T10:58:54;14.45;;;11.98;;
19384;SDS011;9828;54.122;17.974;2022-08-16T11:04:37;16.58;;;10.48;;
19384;SDS011;9828;54.122;17.974;2022-08-16T11:10:19;15.13;;;10.90;;
19384;SDS011;9828;54.122;17.974;2022-08-16T11:16:04;12.50;;;11.20;;
19384;SDS011;9828;54.122;17.974;2022-08-16T11:21:47;12.68;;;11.38;;
19384;SDS011;9828;54.122;17.974;2022-08-16T11:27:28;13.85;;;11.63;;
19384;SDS011;9828;54.122;17.974;2022-08-16T11:32:50;16.60;;;11.27;;
19384;SDS011;9828;54.122;17.974;2022-08-16T11:38:16;12.70;;;11.32;;
19384;SDS011;9828;54.122;17.974;2022-08-16T11:43:40;18.92;;;12.30;;
19384;SDS011;9828;54.122;17.974;2022-08-16T11:49:02;14.52;;;11.30;;
19384;SDS011;9828;54.122;17.974;2022-08-16T11:54:26;16.00;;;10.88;;
19384;SDS011;9828;54.122;17.974;2022-08-16T11:59:47;14.43;;;10.90;;
19384;SDS011;9828;54.122;17.974;2022-08-16T12:05:10;13.48;;;11.98;;
19384;SDS011;9828;54.122;17.974;2022-08-16T12:10:35;13.15;;;11.70;;
19384;SDS011;9828;54.122;17.974;2022-08-16T12:15:58;16.50;;;12.70;;
19384;SDS011;9828;54.122;17.974;2022-08-16T12:21:20;13.60;;;11.77;;
19384;SDS011;9828;54.122;17.974;2022-08-16T12:26:41;14.38;;;12.02;;
19384;SDS011;9828;54.122;17.974;2022-08-16T12:32:03;12.68;;;11.38;;
19384;SDS011;9828;54.122;17.974;2022-08-16T12:37:25;16.40;;;13.95;;
19384;SDS011;9828;54.122;17.974;2022-08-16T12:42:47;22.45;;;13.77;;
19384;SDS011;9828;54.122;17.974;2022-08-16T12:48:10;16.42;;;12.57;;
19384;SDS011;9828;54.122;17.974;2022-08-16T12:53:52;12.13;;;9.98;;
19384;SDS011;9828;54.122;17.974;2022-08-16T12:59:16;12.25;;;9.90;;
19384;SDS011;9828;54.122;17.974;2022-08-16T13:04:39;14.07;;;10.10;;
19384;SDS011;9828;54.122;17.974;2022-08-16T13:10:03;12.63;;;11.32;;
19384;SDS011;9828;54.122;17.974;2022-08-16T13:15:30;13.75;;;9.90;;
19384;SDS011;9828;54.122;17.974;2022-08-16T13:20:52;10.90;;;9.13;;
19384;SDS011;9828;54.122;17.974;2022-08-16T13:26:14;9.13;;;7.85;;
19384;SDS011;9828;54.122;17.974;2022-08-16T13:31:35;9.93;;;8.73;;
19384;SDS011;9828;54.122;17.974;2022-08-16T13:36:57;8.55;;;7.75;;
19384;SDS011;9828;54.122;17.974;2022-08-16T13:42:18;9.80;;;8.80;;
19384;SDS011;9828;54.122;17.974;2022-08-16T13:47:40;10.57;;;9.48;;
19384;SDS011;9828;54.122;17.974;2022-08-16T13:53:02;11.68;;;10.32;;
19384;SDS011;9828;54.122;17.974;2022-08-16T13:58:23;11.27;;;10.18;;
19384;SDS011;9828;54.122;17.974;2022-08-16T14:03:44;12.13;;;9.65;;
19384;SDS011;9828;54.122;17.974;2022-08-16T14:09:06;8.85;;;7.95;;
19384;SDS011;9828;54.122;17.974;2022-08-16T14:14:28;9.68;;;7.57;;
19384;SDS011;9828;54.122;17.974;2022-08-16T14:19:50;8.77;;;5.53;;
19384;SDS011;9828;54.122;17.974;2022-08-16T14:25:17;10.25;;;6.00;;
19384;SDS011;9828;54.122;17.974;2022-08-16T14:30:40;10.32;;;7.40;;
19384;SDS011;9828;54.122;17.974;2022-08-16T14:36:02;11.82;;;7.20;;
19384;SDS011;9828;54.122;17.974;2022-08-16T14:41:25;15.43;;;7.97;;
19384;SDS011;9828;54.122;17.974;2022-08-16T14:46:48;7.63;;;4.70;;
19384;SDS011;9828;54.122;17.974;2022-08-16T14:52:11;7.80;;;5.22;;
19384;SDS011;9828;54.122;17.974;2022-08-16T14:57:37;5.85;;;4.45;;
19384;SDS011;9828;54.122;17.974;2022-08-16T15:03:03;6.72;;;4.50;;
19384;SDS011;9828;54.122;17.974;2022-08-16T15:08:26;6.57;;;5.40;;
19384;SDS011;9828;54.122;17.974;2022-08-16T15:13:48;9.30;;;6.18;;
19384;SDS011;9828;54.122;17.974;2022-08-16T15:19:09;9.40;;;6.43;;
19384;SDS011;9828;54.122;17.974;2022-08-16T15:24:33;6.72;;;5.78;;
19384;SDS011;9828;54.122;17.974;2022-08-16T15:29:54;7.65;;;4.45;;
19384;SDS011;9828;54.122;17.974;2022-08-16T15:35:17;7.57;;;4.10;;
19384;SDS011;9828;54.122;17.974;2022-08-16T15:40:38;11.77;;;7.50;;
19384;SDS011;9828;54.122;17.974;2022-08-16T15:46:00;10.75;;;7.45;;
19384;SDS011;9828;54.122;17.974;2022-08-16T15:51:41;9.15;;;7.05;;
19384;SDS011;9828;54.122;17.974;2022-08-16T15:57:03;7.55;;;6.00;;
19384;SDS011;9828;54.122;17.974;2022-08-16T16:02:25;10.15;;;7.05;;
19384;SDS011;9828;54.122;17.974;2022-08-16T16:07:47;12.02;;;7.53;;
19384;SDS011;9828;54.122;17.974;2022-08-16T16:13:09;13.80;;;8.57;;
19384;SDS011;9828;54.122;17.974;2022-08-16T16:18:32;11.20;;;8.00;;
19384;SDS011;9828;54.122;17.974;2022-08-16T16:23:53;17.20;;;12.55;;
19384;SDS011;9828;54.122;17.974;2022-08-16T16:29:15;13.23;;;9.82;;
19384;SDS011;9828;54.122;17.974;2022-08-16T16:34:37;11.65;;;9.07;;
19384;SDS011;9828;54.122;17.974;2022-08-16T16:39:58;13.07;;;9.15;;
19384;SDS011;9828;54.122;17.974;2022-08-16T16:45:20;15.55;;;9.30;;
19384;SDS011;9828;54.122;17.974;2022-08-16T16:50:42;9.43;;;6.70;;
19384;SDS011;9828;54.122;17.974;2022-08-16T16:56:03;10.50;;;6.90;;
19384;SDS011;9828;54.122;17.974;2022-08-16T17:01:26;8.70;;;7.10;;
19384;SDS011;9828;54.122;17.974;2022-08-16T17:06:51;12.18;;;9.38;;
19384;SDS011;9828;54.122;17.974;2022-08-16T17:12:13;14.48;;;10.32;;
19384;SDS011;9828;54.122;17.974;2022-08-16T17:17:34;14.82;;;11.13;;
19384;SDS011;9828;54.122;17.974;2022-08-16T17:22:56;12.88;;;9.85;;
19384;SDS011;9828;54.122;17.974;2022-08-16T17:28:18;13.27;;;9.30;;
19384;SDS011;9828;54.122;17.974;2022-08-16T17:33:39;16.52;;;10.80;;
19384;SDS011;9828;54.122;17.974;2022-08-16T17:39:01;16.67;;;11.43;;
19384;SDS011;9828;54.122;17.974;2022-08-16T17:44:23;11.18;;;8.63;;
19384;SDS011;9828;54.122;17.974;2022-08-16T17:49:44;17.75;;;11.95;;
19384;SDS011;9828;54.122;17.974;2022-08-16T17:55:06;13.55;;;9.38;;
19384;SDS011;9828;54.122;17.974;2022-08-16T18:00:32;10.35;;;7.85;;
19384;SDS011;9828;54.122;17.974;2022-08-16T18:05:53;9.63;;;7.45;;
19384;SDS011;9828;54.122;17.974;2022-08-16T18:11:15;12.25;;;7.78;;
19384;SDS011;9828;54.122;17.974;2022-08-16T18:16:37;10.50;;;6.60;;
19384;SDS011;9828;54.122;17.974;2022-08-16T18:22:01;10.05;;;7.25;;
19384;SDS011;9828;54.122;17.974;2022-08-16T18:27:38;10.98;;;8.52;;
19384;SDS011;9828;54.122;17.974;2022-08-16T18:32:59;11.40;;;8.10;;
19384;SDS011;9828;54.122;17.974;2022-08-16T18:38:20;13.02;;;9.80;;
19384;SDS011;9828;54.122;17.974;2022-08-16T18:43:42;15.60;;;9.45;;
19384;SDS011;9828;54.122;17.974;2022-08-16T18:49:03;10.60;;;8.18;;
19384;SDS011;9828;54.122;17.974;2022-08-16T18:54:24;11.57;;;9.18;;
19384;SDS011;9828;54.122;17.974;2022-08-16T18:59:47;11.10;;;9.43;;
19384;SDS011;9828;54.122;17.974;2022-08-16T19:05:14;12.00;;;9.60;;
19384;SDS011;9828;54.122;17.974;2022-08-16T19:10:41;12.60;;;9.25;;
19384;SDS011;9828;54.122;17.974;2022-08-16T19:16:03;11.68;;;9.10;;
19384;SDS011;9828;54.122;17.974;2022-08-16T19:21:25;12.43;;;9.57;;
19384;SDS011;9828;54.122;17.974;2022-08-16T19:26:46;16.48;;;10.10;;
19384;SDS011;9828;54.122;17.974;2022-08-16T19:32:19;11.68;;;9.52;;
19384;SDS011;9828;54.122;17.974;2022-08-16T19:37:43;14.32;;;10.13;;
19384;SDS011;9828;54.122;17.974;2022-08-16T19:43:08;11.93;;;10.20;;
19384;SDS011;9828;54.122;17.974;2022-08-16T19:48:30;16.95;;;11.05;;
19384;SDS011;9828;54.122;17.974;2022-08-16T19:53:52;14.43;;;11.52;;
19384;SDS011;9828;54.122;17.974;2022-08-16T19:59:13;14.32;;;12.15;;
19384;SDS011;9828;54.122;17.974;2022-08-16T20:04:37;14.80;;;11.65;;
19384;SDS011;9828;54.122;17.974;2022-08-16T20:09:58;15.88;;;10.30;;
19384;SDS011;9828;54.122;17.974;2022-08-16T20:15:21;12.13;;;9.07;;
19384;SDS011;9828;54.122;17.974;2022-08-16T20:20:45;10.10;;;8.23;;
19384;SDS011;9828;54.122;17.974;2022-08-16T20:26:07;9.38;;;7.78;;
19384;SDS011;9828;54.122;17.974;2022-08-16T20:31:29;7.82;;;7.03;;
19384;SDS011;9828;54.122;17.974;2022-08-16T20:36:50;11.55;;;7.80;;
19384;SDS011;9828;54.122;17.974;2022-08-16T20:42:12;9.43;;;8.02;;
19384;SDS011;9828;54.122;17.974;2022-08-16T20:47:38;10.70;;;9.23;;
19384;SDS011;9828;54.122;17.974;2022-08-16T20:52:59;11.88;;;9.65;;
19384;SDS011;9828;54.122;17.974;2022-08-16T20:58:21;12.05;;;10.68;;
19384;SDS011;9828;54.122;17.974;2022-08-16T21:03:43;16.85;;;11.02;;
19384;SDS011;9828;54.122;17.974;2022-08-16T21:09:04;13.95;;;9.93;;
19384;SDS011;9828;54.122;17.974;2022-08-16T21:14:27;14.80;;;10.73;;
19384;SDS011;9828;54.122;17.974;2022-08-16T21:19:51;19.08;;;12.10;;
19384;SDS011;9828;54.122;17.974;2022-08-16T21:25:13;13.38;;;10.60;;
19384;SDS011;9828;54.122;17.974;2022-08-16T21:30:35;12.55;;;9.02;;
19384;SDS011;9828;54.122;17.974;2022-08-16T21:35:57;11.35;;;8.75;;
19384;SDS011;9828;54.122;17.974;2022-08-16T21:41:18;12.15;;;9.13;;
19384;SDS011;9828;54.122;17.974;2022-08-16T21:46:39;14.52;;;9.07;;
19384;SDS011;9828;54.122;17.974;2022-08-16T21:52:00;10.98;;;8.15;;
19384;SDS011;9828;54.122;17.974;2022-08-16T21:57:22;11.93;;;8.93;;
19384;SDS011;9828;54.122;17.974;2022-08-16T22:02:43;14.88;;;9.45;;
19384;SDS011;9828;54.122;17.974;2022-08-16T22:08:08;11.65;;;9.23;;
19384;SDS011;9828;54.122;17.974;2022-08-16T22:13:30;13.50;;;9.05;;
19384;SDS011;9828;54.122;17.974;2022-08-16T22:18:51;14.65;;;9.98;;
19384;SDS011;9828;54.122;17.974;2022-08-16T22:24:12;12.82;;;9.52;;
19384;SDS011;9828;54.122;17.974;2022-08-16T22:29:34;9.82;;;8.80;;
19384;SDS011;9828;54.122;17.974;2022-08-16T22:34:55;12.95;;;8.60;;
19384;SDS011;9828;54.122;17.974;2022-08-16T22:40:17;10.18;;;8.60;;
19384;SDS011;9828;54.122;17.974;2022-08-16T22:45:40;10.68;;;8.80;;
19384;SDS011;9828;54.122;17.974;2022-08-16T22:51:03;12.02;;;8.48;;
19384;SDS011;9828;54.122;17.974;2022-08-16T22:56:25;9.63;;;8.52;;
19384;SDS011;9828;54.122;17.974;2022-08-16T23:01:47;9.32;;;8.30;;
19384;SDS011;9828;54.122;17.974;2022-08-16T23:07:08;8.75;;;7.18;;
19384;SDS011;9828;54.122;17.974;2022-08-16T23:12:30;9.18;;;7.95;;
19384;SDS011;9828;54.122;17.974;2022-08-16T23:17:52;8.88;;;7.38;;
19384;SDS011;9828;54.122;17.974;2022-08-16T23:23:17;9.27;;;6.72;;
19384;SDS011;9828;54.122;17.974;2022-08-16T23:28:41;8.50;;;7.63;;
19384;SDS011;9828;54.122;17.974;2022-08-16T23:34:03;8.52;;;7.63;;
19384;SDS011;9828;54.122;17.974;2022-08-16T23:39:24;7.78;;;6.70;;
19384;SDS011;9828;54.122;17.974;2022-08-16T23:44:45;7.90;;;7.07;;
19384;SDS011;9828;54.122;17.974;2022-08-16T23:50:07;7.47;;;6.72;;
19384;SDS011;9828;54.122;17.974;2022-08-16T23:55:31;7.45;;;6.57;;
